createdAt,value
2023-01-19T05:34:04.052Z,0.91
2023-01-19T05:39:05.774Z,0.89
2023-01-19T05:44:07.525Z,0.81
2023-01-19T05:49:09.409Z,0.93
2023-01-19T05:54:15.401Z,0.76
2023-01-19T05:59:23.954Z,0.74
2023-01-19T06:04:26.517Z,0.78
2023-01-19T06:09:28.407Z,0.69
2023-01-19T06:14:30.044Z,0.73
2023-01-19T06:19:32.350Z,0.66
2023-01-19T06:24:33.996Z,0.87
2023-01-19T06:29:35.618Z,0.89
2023-01-19T06:34:37.320Z,0.90
2023-01-19T06:39:41.268Z,0.91
2023-01-19T06:44:47.541Z,0.85
2023-01-19T06:49:49.568Z,1.03
2023-01-19T06:54:51.139Z,0.80
2023-01-19T06:59:53.082Z,0.88
2023-01-19T07:04:55.358Z,0.99
2023-01-19T07:09:56.960Z,0.92
2023-01-19T07:14:58.730Z,0.92
2023-01-19T07:20:00.372Z,1.06
2023-01-19T07:25:02.075Z,0.90
2023-01-19T07:30:04.645Z,0.96
2023-01-19T07:35:06.687Z,0.80
2023-01-19T07:40:09.167Z,0.79
2023-01-19T07:45:11.069Z,0.88
2023-01-19T07:50:13.985Z,0.76
2023-01-19T07:55:15.873Z,0.14
2023-01-19T08:00:24.734Z,0.53
2023-01-19T08:05:27.615Z,0.53
2023-01-19T08:10:29.497Z,0.41
2023-01-19T08:15:31.266Z,0.80
2023-01-19T08:20:32.941Z,0.52
2023-01-19T08:25:37.809Z,0.55
2023-01-19T08:30:40.600Z,0.59
2023-01-19T08:35:47.259Z,0.51
2023-01-19T08:40:49.042Z,0.64
2023-01-19T08:45:52.193Z,0.74
2023-01-19T08:50:54.017Z,0.87
2023-01-19T08:55:57.772Z,0.75
2023-01-19T09:01:01.992Z,0.76
2023-01-19T09:06:08.869Z,0.78
2023-01-19T09:11:12.423Z,0.87
2023-01-19T09:16:16.046Z,0.72
2023-01-19T09:21:18.743Z,0.91
2023-01-19T09:26:22.469Z,0.92
2023-01-19T09:31:24.337Z,1.11
2023-01-19T09:36:26.160Z,1.04
2023-01-19T09:41:27.936Z,0.98
2023-01-19T09:46:39.900Z,0.97
2023-01-19T09:51:45.363Z,1.08
2023-01-19T09:56:52.141Z,1.04
2023-01-19T10:02:14.574Z,1.14
2023-01-19T10:07:29.657Z,0.87
2023-01-19T10:12:57.547Z,0.87
2023-01-19T10:18:21.270Z,0.93
2023-01-19T10:23:34.975Z,0.90
2023-01-19T10:28:39.040Z,0.61
2023-01-19T10:33:41.105Z,0.44
2023-01-19T10:38:43.212Z,0.64
2023-01-19T10:43:47.181Z,0.64
2023-01-19T10:48:52.278Z,0.50
2023-01-19T10:54:02.828Z,0.49
2023-01-19T10:59:07.037Z,0.47
2023-01-19T11:04:22.276Z,0.66
2023-01-19T11:09:24.066Z,0.78
2023-01-19T11:14:30.849Z,0.82
2023-01-19T11:19:33.908Z,0.61
2023-01-19T11:24:38.586Z,0.79
2023-01-19T11:29:40.412Z,0.76
2023-01-19T11:34:42.236Z,0.64
2023-01-19T11:39:50.587Z,0.54
2023-01-19T11:44:57.920Z,0.67
2023-01-19T11:50:29.917Z,0.78
2023-01-19T11:55:48.747Z,0.79
2023-01-19T12:00:57.044Z,0.90
2023-01-19T12:06:06.969Z,0.80
2023-01-19T12:11:12.715Z,0.95
2023-01-19T12:16:20.851Z,0.93
2023-01-19T12:21:22.687Z,0.81
2023-01-19T12:26:37.430Z,1.04
2023-01-19T12:31:40.810Z,0.97
2023-01-19T12:36:44.055Z,0.85
2023-01-19T12:41:48.804Z,0.93
2023-01-19T12:46:57.390Z,0.73
2023-01-19T12:52:21.047Z,1.03
2023-01-19T12:57:50.444Z,1.04
2023-01-19T13:02:56.312Z,1.04
2023-01-19T13:08:07.228Z,1.18
2023-01-19T13:13:29.518Z,1.16
2023-01-19T13:18:38.415Z,1.11
2023-01-19T13:23:52.315Z,1.15
2023-01-19T13:28:57.491Z,0.75
2023-01-19T13:34:01.564Z,0.96
2023-01-19T13:39:28.953Z,0.96
2023-01-19T13:44:42.339Z,0.99
2023-01-19T13:49:46.698Z,0.85
2023-01-19T13:54:55.671Z,1.14
2023-01-19T14:00:09.867Z,1.15
2023-01-19T14:05:20.060Z,1.17
2023-01-19T14:10:21.697Z,0.93
2023-01-19T14:15:23.517Z,1.06
2023-01-19T14:20:30.434Z,1.03
2023-01-19T14:25:34.668Z,1.15
2023-01-19T14:30:36.859Z,1.26
2023-01-19T14:35:38.651Z,1.16
2023-01-19T14:40:40.800Z,1.18
2023-01-19T14:45:47.626Z,1.05
2023-01-19T14:51:02.875Z,1.27
2023-01-19T14:56:06.904Z,1.18
2023-01-19T15:01:09.241Z,1.03
2023-01-19T15:06:16.682Z,1.24
2023-01-19T15:11:22.777Z,0.99
2023-01-19T15:16:27.565Z,1.12
2023-01-19T15:21:29.511Z,1.19
2023-01-19T15:26:31.183Z,1.09
2023-01-19T15:31:32.853Z,1.01
2023-01-19T15:36:34.602Z,1.04
2023-01-19T15:41:38.396Z,1.08
2023-01-19T15:46:41.099Z,1.04
2023-01-19T15:51:42.700Z,0.94
2023-01-19T15:56:59.961Z,0.92
2023-01-19T16:02:01.924Z,1.01
2023-01-19T16:07:03.946Z,0.79
2023-01-19T16:12:05.859Z,0.96
2023-01-19T16:17:07.554Z,0.95
2023-01-19T16:22:11.310Z,1.17
2023-01-19T16:27:12.926Z,1.02
2023-01-19T16:32:15.270Z,0.92
2023-01-19T16:37:18.386Z,0.95
2023-01-19T16:42:20.348Z,0.82
2023-01-19T16:47:22.094Z,0.82
2023-01-19T16:52:23.766Z,0.75
2023-01-19T16:57:25.526Z,0.72
2023-01-19T17:02:27.268Z,0.67
2023-01-19T17:07:28.930Z,0.50
2023-01-19T17:12:32.229Z,0.63
2023-01-19T17:17:36.271Z,0.64
2023-01-19T17:22:37.888Z,0.61
2023-01-19T17:27:39.725Z,0.68
2023-01-19T17:32:42.688Z,0.79
2023-01-19T17:37:44.478Z,0.57
2023-01-19T17:42:46.184Z,0.58
2023-01-19T17:47:50.955Z,0.60
2023-01-19T17:52:52.918Z,0.40
2023-01-19T17:57:54.544Z,0.76
2023-01-19T18:02:56.167Z,0.73
2023-01-19T18:08:00.173Z,0.61
2023-01-19T18:13:01.873Z,0.63
2023-01-19T18:18:04.529Z,0.56
2023-01-19T18:23:09.397Z,0.55
2023-01-19T18:28:10.980Z,0.74
2023-01-19T18:33:12.592Z,0.40
2023-01-19T18:38:14.837Z,0.54
2023-01-19T18:43:16.438Z,0.34
2023-01-19T18:48:18.192Z,0.20
2023-01-19T18:53:20.573Z,0.14
2023-01-19T18:58:22.978Z,0.06
2023-01-19T19:03:24.968Z,0.01
2023-01-19T19:08:26.621Z,0.17
2023-01-19T19:13:28.366Z,0.13
2023-01-19T19:18:30.949Z,0.06
2023-01-19T19:23:32.661Z,-0.10
2023-01-19T19:28:37.257Z,-0.21
2023-01-19T19:33:39.940Z,-0.12
2023-01-19T19:38:42.942Z,-0.34
2023-01-19T19:43:45.003Z,-0.29
2023-01-19T19:48:48.163Z,-0.37
2023-01-19T19:53:51.838Z,-0.23
2023-01-19T19:58:56.246Z,-0.32
2023-01-19T20:04:00.293Z,-0.09
2023-01-19T20:09:02.070Z,-0.37
2023-01-19T20:14:08.428Z,-0.57
2023-01-19T20:19:10.549Z,-0.78
2023-01-19T20:24:19.187Z,-0.81
2023-01-19T20:29:21.421Z,-0.98
2023-01-19T20:34:28.162Z,-0.79
2023-01-19T20:39:33.359Z,-1.00
2023-01-19T20:44:35.146Z,-1.10
2023-01-19T20:49:36.910Z,-0.92
2023-01-19T20:54:39.890Z,-0.90
2023-01-19T20:59:41.625Z,-0.81
